Terminal Aerodrome Forecast
Issued by NWS Duluth, MN

Home | Current Version | Previous Version | Text Only | Print | Product List | Glossary On
Versions: 1 2 3 4 5 6 7 8 9 10 11 12 13 14 15 16 17 18 19 20 21 22 23 24 25 26 27 28 29 30 31 32 33 34
458
FTUS43 KDLH 230434 AAA
TAFDLH
TAF AMD
KDLH 230434Z 2305/2324 07007KT P6SM BKN150
      TEMPO 2306/2308 1/2SM FG BKN004
     FM230800 08008KT P6SM SCT005 BKN015 BKN150
     FM231200 08013G20KT P6SM BKN010
     FM231600 09014G24KT P6SM SCT020 BKN150
     FM232200 10012G19KT P6SM SCT050 OVC150=

USA.gov is the U.S. government's official web portal to all federal, state and local government web resources and services.